sensor_id;sensor_type;location;lat;lon;timestamp;P1;durP1;ratioP1;P2;durP2;ratioP2
21810;SDS011;11067;48.788;9.208;2023-12-20T00:00:57;1.23;;;1.13;;
21810;SDS011;11067;48.788;9.208;2023-12-20T00:03:22;1.70;;;1.20;;
21810;SDS011;11067;48.788;9.208;2023-12-20T00:05:49;1.25;;;1.15;;
21810;SDS011;11067;48.788;9.208;2023-12-20T00:08:15;1.40;;;1.13;;
21810;SDS011;11067;48.788;9.208;2023-12-20T00:10:40;1.27;;;1.08;;
21810;SDS011;11067;48.788;9.208;2023-12-20T00:13:06;1.50;;;1.10;;
21810;SDS011;11067;48.788;9.208;2023-12-20T00:15:32;1.27;;;1.10;;
21810;SDS011;11067;48.788;9.208;2023-12-20T00:17:58;1.23;;;1.05;;
21810;SDS011;11067;48.788;9.208;2023-12-20T00:20:24;2.07;;;1.10;;
21810;SDS011;11067;48.788;9.208;2023-12-20T00:22:49;1.30;;;1.00;;
21810;SDS011;11067;48.788;9.208;2023-12-20T00:25:15;1.52;;;1.08;;
21810;SDS011;11067;48.788;9.208;2023-12-20T00:27:41;1.00;;;0.90;;
21810;SDS011;11067;48.788;9.208;2023-12-20T00:30:07;1.27;;;1.10;;
21810;SDS011;11067;48.788;9.208;2023-12-20T00:32:33;1.23;;;1.10;;
21810;SDS011;11067;48.788;9.208;2023-12-20T00:34:59;2.22;;;1.00;;
21810;SDS011;11067;48.788;9.208;2023-12-20T00:37:25;1.10;;;1.00;;
21810;SDS011;11067;48.788;9.208;2023-12-20T00:39:50;1.60;;;1.20;;
21810;SDS011;11067;48.788;9.208;2023-12-20T00:42:16;1.23;;;1.00;;
21810;SDS011;11067;48.788;9.208;2023-12-20T00:44:41;0.98;;;0.80;;
21810;SDS011;11067;48.788;9.208;2023-12-20T00:47:07;1.35;;;1.15;;
21810;SDS011;11067;48.788;9.208;2023-12-20T00:49:32;2.60;;;1.40;;
21810;SDS011;11067;48.788;9.208;2023-12-20T00:51:58;1.50;;;1.20;;
21810;SDS011;11067;48.788;9.208;2023-12-20T00:54:23;1.10;;;1.00;;
21810;SDS011;11067;48.788;9.208;2023-12-20T00:56:49;1.30;;;1.05;;
21810;SDS011;11067;48.788;9.208;2023-12-20T00:59:15;1.37;;;1.20;;
21810;SDS011;11067;48.788;9.208;2023-12-20T01:01:41;1.00;;;0.90;;
21810;SDS011;11067;48.788;9.208;2023-12-20T01:04:07;2.50;;;1.20;;
21810;SDS011;11067;48.788;9.208;2023-12-20T01:06:32;1.10;;;1.00;;
21810;SDS011;11067;48.788;9.208;2023-12-20T01:08:58;1.60;;;1.10;;
21810;SDS011;11067;48.788;9.208;2023-12-20T01:11:23;1.13;;;0.93;;
21810;SDS011;11067;48.788;9.208;2023-12-20T01:13:49;1.20;;;1.10;;
21810;SDS011;11067;48.788;9.208;2023-12-20T01:16:14;2.30;;;1.27;;
21810;SDS011;11067;48.788;9.208;2023-12-20T01:18:40;1.30;;;1.10;;
21810;SDS011;11067;48.788;9.208;2023-12-20T01:21:06;1.73;;;1.40;;
21810;SDS011;11067;48.788;9.208;2023-12-20T01:23:31;1.63;;;1.20;;
21810;SDS011;11067;48.788;9.208;2023-12-20T01:25:57;2.30;;;1.20;;
21810;SDS011;11067;48.788;9.208;2023-12-20T01:28:24;1.40;;;1.30;;
21810;SDS011;11067;48.788;9.208;2023-12-20T01:30:50;1.50;;;1.20;;
21810;SDS011;11067;48.788;9.208;2023-12-20T01:33:16;1.93;;;1.10;;
21810;SDS011;11067;48.788;9.208;2023-12-20T01:35:41;1.20;;;1.10;;
21810;SDS011;11067;48.788;9.208;2023-12-20T01:38:07;1.20;;;1.10;;
21810;SDS011;11067;48.788;9.208;2023-12-20T01:40:34;0.97;;;0.97;;
21810;SDS011;11067;48.788;9.208;2023-12-20T01:43:00;1.63;;;1.17;;
21810;SDS011;11067;48.788;9.208;2023-12-20T01:45:26;1.20;;;1.10;;
21810;SDS011;11067;48.788;9.208;2023-12-20T01:47:52;1.85;;;1.17;;
21810;SDS011;11067;48.788;9.208;2023-12-20T01:50:20;1.15;;;0.90;;
21810;SDS011;11067;48.788;9.208;2023-12-20T01:52:46;1.20;;;1.10;;
21810;SDS011;11067;48.788;9.208;2023-12-20T01:55:12;1.10;;;1.00;;
21810;SDS011;11067;48.788;9.208;2023-12-20T01:57:43;1.20;;;1.10;;
21810;SDS011;11067;48.788;9.208;2023-12-20T02:00:10;2.63;;;1.50;;
21810;SDS011;11067;48.788;9.208;2023-12-20T02:02:37;3.87;;;1.30;;
21810;SDS011;11067;48.788;9.208;2023-12-20T02:05:05;2.03;;;1.38;;
21810;SDS011;11067;48.788;9.208;2023-12-20T02:07:31;1.45;;;1.35;;
21810;SDS011;11067;48.788;9.208;2023-12-20T02:09:58;5.93;;;2.30;;
21810;SDS011;11067;48.788;9.208;2023-12-20T02:12:23;2.03;;;1.10;;
21810;SDS011;11067;48.788;9.208;2023-12-20T02:14:49;2.07;;;1.27;;
21810;SDS011;11067;48.788;9.208;2023-12-20T02:17:15;2.63;;;1.30;;
21810;SDS011;11067;48.788;9.208;2023-12-20T02:19:41;2.00;;;1.00;;
21810;SDS011;11067;48.788;9.208;2023-12-20T02:22:09;1.60;;;1.07;;
21810;SDS011;11067;48.788;9.208;2023-12-20T02:24:36;1.35;;;1.25;;
21810;SDS011;11067;48.788;9.208;2023-12-20T02:27:01;1.27;;;1.10;;
21810;SDS011;11067;48.788;9.208;2023-12-20T02:29:28;1.88;;;1.30;;
21810;SDS011;11067;48.788;9.208;2023-12-20T02:31:53;1.88;;;1.08;;
21810;SDS011;11067;48.788;9.208;2023-12-20T02:34:19;1.90;;;1.23;;
21810;SDS011;11067;48.788;9.208;2023-12-20T02:36:44;1.40;;;1.30;;
21810;SDS011;11067;48.788;9.208;2023-12-20T02:39:10;4.10;;;1.60;;
21810;SDS011;11067;48.788;9.208;2023-12-20T02:41:35;3.28;;;1.70;;
21810;SDS011;11067;48.788;9.208;2023-12-20T02:44:01;2.03;;;1.60;;
21810;SDS011;11067;48.788;9.208;2023-12-20T02:46:27;1.65;;;1.27;;
21810;SDS011;11067;48.788;9.208;2023-12-20T02:48:53;3.78;;;2.50;;
21810;SDS011;11067;48.788;9.208;2023-12-20T02:51:18;1.83;;;1.73;;
21810;SDS011;11067;48.788;9.208;2023-12-20T02:53:44;2.97;;;2.00;;
21810;SDS011;11067;48.788;9.208;2023-12-20T02:56:09;2.20;;;1.77;;
21810;SDS011;11067;48.788;9.208;2023-12-20T02:58:35;3.08;;;2.22;;
21810;SDS011;11067;48.788;9.208;2023-12-20T03:01:01;7.03;;;2.40;;
21810;SDS011;11067;48.788;9.208;2023-12-20T03:03:26;2.67;;;1.77;;
21810;SDS011;11067;48.788;9.208;2023-12-20T03:05:52;3.33;;;2.23;;
21810;SDS011;11067;48.788;9.208;2023-12-20T03:08:17;3.47;;;2.03;;
21810;SDS011;11067;48.788;9.208;2023-12-20T03:10:43;2.13;;;1.70;;
21810;SDS011;11067;48.788;9.208;2023-12-20T03:13:08;2.72;;;1.40;;
21810;SDS011;11067;48.788;9.208;2023-12-20T03:15:34;1.40;;;1.10;;
21810;SDS011;11067;48.788;9.208;2023-12-20T03:18:00;1.25;;;1.15;;
21810;SDS011;11067;48.788;9.208;2023-12-20T03:20:25;2.30;;;1.30;;
21810;SDS011;11067;48.788;9.208;2023-12-20T03:22:51;1.97;;;1.40;;
21810;SDS011;11067;48.788;9.208;2023-12-20T03:25:16;2.13;;;1.40;;
21810;SDS011;11067;48.788;9.208;2023-12-20T03:27:42;1.40;;;1.20;;
21810;SDS011;11067;48.788;9.208;2023-12-20T03:30:08;1.20;;;1.00;;
21810;SDS011;11067;48.788;9.208;2023-12-20T03:32:34;1.05;;;0.90;;
21810;SDS011;11067;48.788;9.208;2023-12-20T03:34:59;2.17;;;1.07;;
21810;SDS011;11067;48.788;9.208;2023-12-20T03:37:25;1.25;;;0.85;;
21810;SDS011;11067;48.788;9.208;2023-12-20T03:39:50;0.80;;;0.70;;
21810;SDS011;11067;48.788;9.208;2023-12-20T03:42:16;0.40;;;0.37;;
21810;SDS011;11067;48.788;9.208;2023-12-20T03:44:41;0.40;;;0.40;;
21810;SDS011;11067;48.788;9.208;2023-12-20T03:47:07;2.15;;;0.47;;
21810;SDS011;11067;48.788;9.208;2023-12-20T03:49:33;0.40;;;0.20;;
21810;SDS011;11067;48.788;9.208;2023-12-20T03:51:58;0.40;;;0.40;;
21810;SDS011;11067;48.788;9.208;2023-12-20T03:54:24;0.30;;;0.17;;
21810;SDS011;11067;48.788;9.208;2023-12-20T03:56:49;0.40;;;0.20;;
21810;SDS011;11067;48.788;9.208;2023-12-20T03:59:15;0.10;;;0.10;;
21810;SDS011;11067;48.788;9.208;2023-12-20T04:01:44;0.10;;;0.10;;
21810;SDS011;11067;48.788;9.208;2023-12-20T04:04:10;0.25;;;0.10;;
21810;SDS011;11067;48.788;9.208;2023-12-20T04:06:36;0.10;;;0.10;;
21810;SDS011;11067;48.788;9.208;2023-12-20T04:09:02;0.10;;;0.10;;
21810;SDS011;11067;48.788;9.208;2023-12-20T04:11:28;0.70;;;0.30;;
21810;SDS011;11067;48.788;9.208;2023-12-20T04:13:53;0.43;;;0.30;;
21810;SDS011;11067;48.788;9.208;2023-12-20T04:16:19;0.50;;;0.30;;
21810;SDS011;11067;48.788;9.208;2023-12-20T04:18:44;0.20;;;0.20;;
21810;SDS011;11067;48.788;9.208;2023-12-20T04:21:10;0.10;;;0.10;;
21810;SDS011;11067;48.788;9.208;2023-12-20T04:23:35;0.10;;;0.10;;
21810;SDS011;11067;48.788;9.208;2023-12-20T04:26:01;0.30;;;0.20;;
21810;SDS011;11067;48.788;9.208;2023-12-20T04:28:27;0.20;;;0.20;;
21810;SDS011;11067;48.788;9.208;2023-12-20T04:30:55;0.40;;;0.40;;
21810;SDS011;11067;48.788;9.208;2023-12-20T04:33:21;0.30;;;0.20;;
21810;SDS011;11067;48.788;9.208;2023-12-20T04:35:46;0.40;;;0.20;;
21810;SDS011;11067;48.788;9.208;2023-12-20T04:38:12;0.57;;;0.23;;
21810;SDS011;11067;48.788;9.208;2023-12-20T04:40:37;0.40;;;0.30;;
21810;SDS011;11067;48.788;9.208;2023-12-20T04:43:03;0.80;;;0.10;;
21810;SDS011;11067;48.788;9.208;2023-12-20T04:45:29;0.10;;;0.10;;
21810;SDS011;11067;48.788;9.208;2023-12-20T04:47:55;0.20;;;0.20;;
21810;SDS011;11067;48.788;9.208;2023-12-20T04:50:21;0.32;;;0.30;;
21810;SDS011;11067;48.788;9.208;2023-12-20T04:52:46;0.10;;;0.10;;
21810;SDS011;11067;48.788;9.208;2023-12-20T04:55:12;0.30;;;0.30;;
21810;SDS011;11067;48.788;9.208;2023-12-20T04:57:38;1.75;;;1.45;;
21810;SDS011;11067;48.788;9.208;2023-12-20T05:00:03;0.20;;;0.20;;
21810;SDS011;11067;48.788;9.208;2023-12-20T05:02:29;0.30;;;0.28;;
21810;SDS011;11067;48.788;9.208;2023-12-20T05:04:55;0.20;;;0.20;;
21810;SDS011;11067;48.788;9.208;2023-12-20T05:07:20;0.33;;;0.33;;
21810;SDS011;11067;48.788;9.208;2023-12-20T05:09:46;0.33;;;0.33;;
21810;SDS011;11067;48.788;9.208;2023-12-20T05:12:12;0.30;;;0.30;;
21810;SDS011;11067;48.788;9.208;2023-12-20T05:14:37;0.50;;;0.40;;
21810;SDS011;11067;48.788;9.208;2023-12-20T05:17:03;0.40;;;0.30;;
21810;SDS011;11067;48.788;9.208;2023-12-20T05:19:29;0.40;;;0.30;;
21810;SDS011;11067;48.788;9.208;2023-12-20T05:21:54;0.60;;;0.47;;
21810;SDS011;11067;48.788;9.208;2023-12-20T05:24:20;0.90;;;0.50;;
21810;SDS011;11067;48.788;9.208;2023-12-20T05:26:45;0.30;;;0.30;;
21810;SDS011;11067;48.788;9.208;2023-12-20T05:29:11;1.90;;;0.40;;
21810;SDS011;11067;48.788;9.208;2023-12-20T05:31:36;0.60;;;0.50;;
21810;SDS011;11067;48.788;9.208;2023-12-20T05:34:02;0.55;;;0.43;;
21810;SDS011;11067;48.788;9.208;2023-12-20T05:36:27;1.63;;;0.63;;
21810;SDS011;11067;48.788;9.208;2023-12-20T05:38:53;0.90;;;0.40;;
21810;SDS011;11067;48.788;9.208;2023-12-20T05:41:18;1.50;;;0.30;;
21810;SDS011;11067;48.788;9.208;2023-12-20T05:46:32;0.60;;;0.40;;
21810;SDS011;11067;48.788;9.208;2023-12-20T05:48:57;0.23;;;0.23;;
21810;SDS011;11067;48.788;9.208;2023-12-20T05:51:23;0.40;;;0.40;;
21810;SDS011;11067;48.788;9.208;2023-12-20T05:53:48;0.93;;;0.38;;
21810;SDS011;11067;48.788;9.208;2023-12-20T05:56:15;1.85;;;0.68;;
21810;SDS011;11067;48.788;9.208;2023-12-20T05:58:40;0.70;;;0.60;;
21810;SDS011;11067;48.788;9.208;2023-12-20T06:01:06;0.35;;;0.30;;
21810;SDS011;11067;48.788;9.208;2023-12-20T06:03:33;0.40;;;0.30;;
21810;SDS011;11067;48.788;9.208;2023-12-20T06:05:59;0.53;;;0.40;;
21810;SDS011;11067;48.788;9.208;2023-12-20T06:08:29;2.05;;;0.60;;
21810;SDS011;11067;48.788;9.208;2023-12-20T06:10:54;0.60;;;0.50;;
21810;SDS011;11067;48.788;9.208;2023-12-20T06:13:20;1.17;;;0.70;;
21810;SDS011;11067;48.788;9.208;2023-12-20T06:15:45;1.23;;;0.68;;
21810;SDS011;11067;48.788;9.208;2023-12-20T06:18:11;1.10;;;0.60;;
21810;SDS011;11067;48.788;9.208;2023-12-20T06:20:36;2.10;;;0.73;;
21810;SDS011;11067;48.788;9.208;2023-12-20T06:23:02;2.53;;;1.30;;
21810;SDS011;11067;48.788;9.208;2023-12-20T06:25:27;1.67;;;0.90;;
21810;SDS011;11067;48.788;9.208;2023-12-20T06:27:53;1.23;;;0.75;;
21810;SDS011;11067;48.788;9.208;2023-12-20T06:30:18;0.73;;;0.68;;
21810;SDS011;11067;48.788;9.208;2023-12-20T06:32:44;0.80;;;0.50;;
21810;SDS011;11067;48.788;9.208;2023-12-20T06:35:11;1.33;;;0.90;;
21810;SDS011;11067;48.788;9.208;2023-12-20T06:37:37;2.40;;;0.77;;
21810;SDS011;11067;48.788;9.208;2023-12-20T06:40:03;1.97;;;0.80;;
21810;SDS011;11067;48.788;9.208;2023-12-20T06:42:28;2.47;;;0.90;;
21810;SDS011;11067;48.788;9.208;2023-12-20T06:44:54;2.73;;;1.00;;
21810;SDS011;11067;48.788;9.208;2023-12-20T06:47:19;0.60;;;0.60;;
21810;SDS011;11067;48.788;9.208;2023-12-20T06:49:45;0.95;;;0.70;;
21810;SDS011;11067;48.788;9.208;2023-12-20T06:52:11;1.80;;;0.80;;
21810;SDS011;11067;48.788;9.208;2023-12-20T06:54:36;0.80;;;0.70;;
21810;SDS011;11067;48.788;9.208;2023-12-20T06:57:02;1.03;;;0.70;;
21810;SDS011;11067;48.788;9.208;2023-12-20T06:59:29;1.37;;;0.70;;
21810;SDS011;11067;48.788;9.208;2023-12-20T07:01:55;2.90;;;1.10;;
21810;SDS011;11067;48.788;9.208;2023-12-20T07:04:20;0.90;;;0.80;;
21810;SDS011;11067;48.788;9.208;2023-12-20T07:06:46;1.70;;;0.82;;
21810;SDS011;11067;48.788;9.208;2023-12-20T07:09:13;1.80;;;0.87;;
21810;SDS011;11067;48.788;9.208;2023-12-20T07:11:39;0.93;;;0.80;;
21810;SDS011;11067;48.788;9.208;2023-12-20T07:14:04;1.58;;;1.00;;
21810;SDS011;11067;48.788;9.208;2023-12-20T07:16:30;0.85;;;0.73;;
21810;SDS011;11067;48.788;9.208;2023-12-20T07:18:56;1.70;;;1.38;;
21810;SDS011;11067;48.788;9.208;2023-12-20T07:21:22;2.08;;;0.90;;
21810;SDS011;11067;48.788;9.208;2023-12-20T07:23:47;1.88;;;1.40;;
21810;SDS011;11067;48.788;9.208;2023-12-20T07:26:13;3.30;;;1.20;;
21810;SDS011;11067;48.788;9.208;2023-12-20T07:28:38;1.50;;;1.30;;
21810;SDS011;11067;48.788;9.208;2023-12-20T07:31:05;1.30;;;1.10;;
21810;SDS011;11067;48.788;9.208;2023-12-20T07:33:31;1.77;;;1.50;;
21810;SDS011;11067;48.788;9.208;2023-12-20T07:35:56;2.60;;;1.50;;
21810;SDS011;11067;48.788;9.208;2023-12-20T07:38:22;1.98;;;1.30;;
21810;SDS011;11067;48.788;9.208;2023-12-20T07:40:47;3.33;;;1.42;;
21810;SDS011;11067;48.788;9.208;2023-12-20T07:43:13;2.30;;;1.40;;
21810;SDS011;11067;48.788;9.208;2023-12-20T07:45:38;1.30;;;1.20;;
21810;SDS011;11067;48.788;9.208;2023-12-20T07:48:04;1.40;;;1.30;;
21810;SDS011;11067;48.788;9.208;2023-12-20T07:50:31;1.65;;;1.55;;
21810;SDS011;11067;48.788;9.208;2023-12-20T07:52:57;1.98;;;1.58;;
21810;SDS011;11067;48.788;9.208;2023-12-20T07:58:24;1.88;;;1.70;;
21810;SDS011;11067;48.788;9.208;2023-12-20T08:00:49;1.70;;;1.60;;
21810;SDS011;11067;48.788;9.208;2023-12-20T08:03:15;1.90;;;1.60;;
21810;SDS011;11067;48.788;9.208;2023-12-20T08:05:41;2.30;;;1.88;;
21810;SDS011;11067;48.788;9.208;2023-12-20T08:08:06;2.90;;;2.05;;
21810;SDS011;11067;48.788;9.208;2023-12-20T08:10:32;2.50;;;1.75;;
21810;SDS011;11067;48.788;9.208;2023-12-20T08:12:57;2.80;;;1.90;;
21810;SDS011;11067;48.788;9.208;2023-12-20T08:15:23;1.70;;;1.60;;
21810;SDS011;11067;48.788;9.208;2023-12-20T08:17:49;1.93;;;1.73;;
21810;SDS011;11067;48.788;9.208;2023-12-20T08:20:18;2.42;;;1.80;;
21810;SDS011;11067;48.788;9.208;2023-12-20T08:22:43;2.13;;;1.90;;
21810;SDS011;11067;48.788;9.208;2023-12-20T08:25:09;2.57;;;2.07;;
21810;SDS011;11067;48.788;9.208;2023-12-20T08:27:40;3.17;;;2.57;;
21810;SDS011;11067;48.788;9.208;2023-12-20T08:30:07;2.70;;;2.10;;
21810;SDS011;11067;48.788;9.208;2023-12-20T08:32:34;3.70;;;2.20;;
21810;SDS011;11067;48.788;9.208;2023-12-20T08:34:59;3.97;;;2.17;;
21810;SDS011;11067;48.788;9.208;2023-12-20T08:37:25;2.90;;;2.40;;
21810;SDS011;11067;48.788;9.208;2023-12-20T08:39:51;3.22;;;2.13;;
21810;SDS011;11067;48.788;9.208;2023-12-20T08:42:16;3.72;;;2.20;;
21810;SDS011;11067;48.788;9.208;2023-12-20T08:44:42;3.07;;;1.90;;
21810;SDS011;11067;48.788;9.208;2023-12-20T08:47:07;3.00;;;2.10;;
21810;SDS011;11067;48.788;9.208;2023-12-20T08:49:33;2.90;;;1.83;;
21810;SDS011;11067;48.788;9.208;2023-12-20T08:51:58;3.70;;;2.20;;
21810;SDS011;11067;48.788;9.208;2023-12-20T08:54:24;2.17;;;1.93;;
21810;SDS011;11067;48.788;9.208;2023-12-20T08:56:50;3.83;;;2.13;;
21810;SDS011;11067;48.788;9.208;2023-12-20T08:59:15;3.38;;;2.00;;
21810;SDS011;11067;48.788;9.208;2023-12-20T09:01:41;1.70;;;1.60;;
21810;SDS011;11067;48.788;9.208;2023-12-20T09:04:06;4.70;;;2.10;;
21810;SDS011;11067;48.788;9.208;2023-12-20T09:06:32;2.17;;;1.87;;
21810;SDS011;11067;48.788;9.208;2023-12-20T09:08:57;4.20;;;2.10;;
21810;SDS011;11067;48.788;9.208;2023-12-20T09:11:23;3.40;;;1.80;;
21810;SDS011;11067;48.788;9.208;2023-12-20T09:13:48;3.30;;;2.00;;
21810;SDS011;11067;48.788;9.208;2023-12-20T09:16:14;3.27;;;2.20;;
21810;SDS011;11067;48.788;9.208;2023-12-20T09:18:40;2.47;;;1.92;;
21810;SDS011;11067;48.788;9.208;2023-12-20T09:21:06;3.40;;;2.33;;
21810;SDS011;11067;48.788;9.208;2023-12-20T09:23:32;2.87;;;2.07;;
21810;SDS011;11067;48.788;9.208;2023-12-20T09:25:57;3.55;;;1.90;;
21810;SDS011;11067;48.788;9.208;2023-12-20T09:28:23;2.60;;;2.15;;
21810;SDS011;11067;48.788;9.208;2023-12-20T09:30:48;2.67;;;2.10;;
21810;SDS011;11067;48.788;9.208;2023-12-20T09:33:14;2.70;;;1.90;;
21810;SDS011;11067;48.788;9.208;2023-12-20T09:35:39;2.30;;;1.73;;
21810;SDS011;11067;48.788;9.208;2023-12-20T09:38:05;2.28;;;1.92;;
21810;SDS011;11067;48.788;9.208;2023-12-20T09:40:31;3.33;;;1.60;;
21810;SDS011;11067;48.788;9.208;2023-12-20T09:43:07;2.08;;;1.60;;
21810;SDS011;11067;48.788;9.208;2023-12-20T09:45:35;2.90;;;1.42;;
21810;SDS011;11067;48.788;9.208;2023-12-20T09:48:01;1.90;;;1.15;;
21810;SDS011;11067;48.788;9.208;2023-12-20T09:50:30;4.63;;;1.50;;
21810;SDS011;11067;48.788;9.208;2023-12-20T09:52:57;2.47;;;1.58;;
21810;SDS011;11067;48.788;9.208;2023-12-20T09:55:25;3.73;;;1.47;;
21810;SDS011;11067;48.788;9.208;2023-12-20T09:57:52;3.22;;;1.30;;
21810;SDS011;11067;48.788;9.208;2023-12-20T10:00:18;3.10;;;1.33;;
21810;SDS011;11067;48.788;9.208;2023-12-20T10:02:50;2.85;;;1.15;;
21810;SDS011;11067;48.788;9.208;2023-12-20T10:05:26;1.65;;;1.10;;
21810;SDS011;11067;48.788;9.208;2023-12-20T10:07:58;2.77;;;1.10;;
21810;SDS011;11067;48.788;9.208;2023-12-20T10:10:25;3.83;;;1.38;;
21810;SDS011;11067;48.788;9.208;2023-12-20T10:13:08;2.30;;;1.17;;
21810;SDS011;11067;48.788;9.208;2023-12-20T10:15:35;3.72;;;1.40;;
21810;SDS011;11067;48.788;9.208;2023-12-20T10:18:02;4.10;;;1.10;;
21810;SDS011;11067;48.788;9.208;2023-12-20T10:20:29;4.28;;;1.33;;
21810;SDS011;11067;48.788;9.208;2023-12-20T10:22:56;4.07;;;1.30;;
21810;SDS011;11067;48.788;9.208;2023-12-20T10:25:25;4.85;;;1.52;;
21810;SDS011;11067;48.788;9.208;2023-12-20T10:28:08;3.78;;;1.45;;
21810;SDS011;11067;48.788;9.208;2023-12-20T10:30:35;3.05;;;1.40;;
21810;SDS011;11067;48.788;9.208;2023-12-20T10:33:01;3.83;;;1.42;;
21810;SDS011;11067;48.788;9.208;2023-12-20T10:35:26;3.35;;;1.25;;
21810;SDS011;11067;48.788;9.208;2023-12-20T10:37:53;4.93;;;1.63;;
21810;SDS011;11067;48.788;9.208;2023-12-20T10:40:21;2.70;;;1.35;;
21810;SDS011;11067;48.788;9.208;2023-12-20T10:42:47;3.53;;;1.40;;
21810;SDS011;11067;48.788;9.208;2023-12-20T10:45:15;2.20;;;1.20;;
21810;SDS011;11067;48.788;9.208;2023-12-20T10:47:42;2.60;;;1.30;;
21810;SDS011;11067;48.788;9.208;2023-12-20T10:50:11;4.75;;;1.80;;
21810;SDS011;11067;48.788;9.208;2023-12-20T10:52:36;5.47;;;1.30;;
21810;SDS011;11067;48.788;9.208;2023-12-20T10:55:03;3.03;;;1.38;;
21810;SDS011;11067;48.788;9.208;2023-12-20T10:57:30;4.63;;;1.52;;
21810;SDS011;11067;48.788;9.208;2023-12-20T10:59:55;4.05;;;1.40;;
21810;SDS011;11067;48.788;9.208;2023-12-20T11:02:26;4.03;;;1.52;;
21810;SDS011;11067;48.788;9.208;2023-12-20T11:05:02;2.72;;;1.60;;
21810;SDS011;11067;48.788;9.208;2023-12-20T11:07:39;3.97;;;1.77;;
21810;SDS011;11067;48.788;9.208;2023-12-20T11:12:43;5.47;;;1.70;;
21810;SDS011;11067;48.788;9.208;2023-12-20T11:15:29;2.95;;;1.30;;
21810;SDS011;11067;48.788;9.208;2023-12-20T11:17:55;2.83;;;1.30;;
21810;SDS011;11067;48.788;9.208;2023-12-20T11:20:22;4.72;;;1.40;;
21810;SDS011;11067;48.788;9.208;2023-12-20T11:22:52;3.40;;;1.27;;
21810;SDS011;11067;48.788;9.208;2023-12-20T11:25:18;3.10;;;1.75;;
21810;SDS011;11067;48.788;9.208;2023-12-20T11:27:44;2.83;;;1.33;;
21810;SDS011;11067;48.788;9.208;2023-12-20T11:30:41;2.50;;;1.58;;
21810;SDS011;11067;48.788;9.208;2023-12-20T11:33:10;3.53;;;1.30;;
21810;SDS011;11067;48.788;9.208;2023-12-20T11:35:36;2.15;;;1.40;;
21810;SDS011;11067;48.788;9.208;2023-12-20T11:38:02;2.13;;;1.50;;
21810;SDS011;11067;48.788;9.208;2023-12-20T11:40:27;3.40;;;1.25;;
21810;SDS011;11067;48.788;9.208;2023-12-20T11:42:53;5.65;;;1.40;;
21810;SDS011;11067;48.788;9.208;2023-12-20T11:45:23;4.88;;;1.65;;
21810;SDS011;11067;48.788;9.208;2023-12-20T11:47:51;2.15;;;1.27;;
21810;SDS011;11067;48.788;9.208;2023-12-20T11:50:19;3.35;;;1.33;;
21810;SDS011;11067;48.788;9.208;2023-12-20T11:52:46;1.95;;;1.30;;
21810;SDS011;11067;48.788;9.208;2023-12-20T11:55:12;3.00;;;1.52;;
21810;SDS011;11067;48.788;9.208;2023-12-20T11:57:38;3.92;;;1.90;;
21810;SDS011;11067;48.788;9.208;2023-12-20T12:00:04;2.78;;;1.25;;
21810;SDS011;11067;48.788;9.208;2023-12-20T12:02:31;8.77;;;1.80;;
21810;SDS011;11067;48.788;9.208;2023-12-20T12:04:57;5.23;;;1.70;;
21810;SDS011;11067;48.788;9.208;2023-12-20T12:07:24;3.55;;;1.60;;
21810;SDS011;11067;48.788;9.208;2023-12-20T12:09:49;2.40;;;1.20;;
21810;SDS011;11067;48.788;9.208;2023-12-20T12:12:15;5.63;;;1.83;;
21810;SDS011;11067;48.788;9.208;2023-12-20T12:14:41;6.53;;;3.05;;
21810;SDS011;11067;48.788;9.208;2023-12-20T12:17:13;7.30;;;1.70;;
21810;SDS011;11067;48.788;9.208;2023-12-20T12:19:42;3.87;;;1.77;;
21810;SDS011;11067;48.788;9.208;2023-12-20T12:22:09;2.47;;;1.23;;
21810;SDS011;11067;48.788;9.208;2023-12-20T12:24:38;5.73;;;1.70;;
21810;SDS011;11067;48.788;9.208;2023-12-20T12:27:10;2.80;;;1.33;;
21810;SDS011;11067;48.788;9.208;2023-12-20T12:29:36;6.35;;;1.55;;
21810;SDS011;11067;48.788;9.208;2023-12-20T12:32:06;5.07;;;1.70;;
21810;SDS011;11067;48.788;9.208;2023-12-20T12:34:33;4.82;;;2.00;;
21810;SDS011;11067;48.788;9.208;2023-12-20T12:36:59;4.30;;;1.65;;
21810;SDS011;11067;48.788;9.208;2023-12-20T12:39:25;4.23;;;1.50;;
21810;SDS011;11067;48.788;9.208;2023-12-20T12:41:51;5.37;;;1.93;;
21810;SDS011;11067;48.788;9.208;2023-12-20T12:44:17;4.47;;;1.55;;
21810;SDS011;11067;48.788;9.208;2023-12-20T12:46:43;4.63;;;1.75;;
21810;SDS011;11067;48.788;9.208;2023-12-20T12:49:11;5.57;;;1.70;;
21810;SDS011;11067;48.788;9.208;2023-12-20T12:51:37;4.73;;;1.67;;
21810;SDS011;11067;48.788;9.208;2023-12-20T12:54:02;2.90;;;1.33;;
21810;SDS011;11067;48.788;9.208;2023-12-20T12:56:28;4.93;;;1.48;;
21810;SDS011;11067;48.788;9.208;2023-12-20T12:58:54;2.90;;;1.57;;
21810;SDS011;11067;48.788;9.208;2023-12-20T13:01:20;5.30;;;1.42;;
21810;SDS011;11067;48.788;9.208;2023-12-20T13:03:45;2.07;;;1.17;;
21810;SDS011;11067;48.788;9.208;2023-12-20T13:06:11;5.40;;;2.13;;
21810;SDS011;11067;48.788;9.208;2023-12-20T13:08:37;5.95;;;1.70;;
21810;SDS011;11067;48.788;9.208;2023-12-20T13:11:03;2.65;;;1.40;;
21810;SDS011;11067;48.788;9.208;2023-12-20T13:13:29;3.45;;;1.50;;
21810;SDS011;11067;48.788;9.208;2023-12-20T13:15:55;4.07;;;1.40;;
21810;SDS011;11067;48.788;9.208;2023-12-20T13:18:21;2.85;;;1.10;;
21810;SDS011;11067;48.788;9.208;2023-12-20T13:20:49;7.20;;;1.80;;
21810;SDS011;11067;48.788;9.208;2023-12-20T13:23:15;4.88;;;1.80;;
21810;SDS011;11067;48.788;9.208;2023-12-20T13:25:43;5.43;;;1.57;;
21810;SDS011;11067;48.788;9.208;2023-12-20T13:28:10;7.22;;;1.80;;
21810;SDS011;11067;48.788;9.208;2023-12-20T13:30:36;4.10;;;1.60;;
21810;SDS011;11067;48.788;9.208;2023-12-20T13:33:01;3.85;;;1.38;;
21810;SDS011;11067;48.788;9.208;2023-12-20T13:35:27;2.55;;;1.27;;
21810;SDS011;11067;48.788;9.208;2023-12-20T13:37:53;5.18;;;1.20;;
21810;SDS011;11067;48.788;9.208;2023-12-20T13:40:18;2.47;;;1.27;;
21810;SDS011;11067;48.788;9.208;2023-12-20T13:42:44;4.43;;;1.50;;
21810;SDS011;11067;48.788;9.208;2023-12-20T13:45:10;2.67;;;1.02;;
21810;SDS011;11067;48.788;9.208;2023-12-20T13:47:36;4.88;;;1.35;;
21810;SDS011;11067;48.788;9.208;2023-12-20T13:50:02;2.30;;;1.02;;
21810;SDS011;11067;48.788;9.208;2023-12-20T13:52:29;4.80;;;1.25;;
21810;SDS011;11067;48.788;9.208;2023-12-20T13:54:54;6.13;;;1.10;;
21810;SDS011;11067;48.788;9.208;2023-12-20T13:57:20;2.75;;;1.38;;
21810;SDS011;11067;48.788;9.208;2023-12-20T13:59:46;3.80;;;1.13;;
21810;SDS011;11067;48.788;9.208;2023-12-20T14:02:11;1.83;;;1.20;;
21810;SDS011;11067;48.788;9.208;2023-12-20T14:04:37;2.67;;;1.40;;
21810;SDS011;11067;48.788;9.208;2023-12-20T14:07:04;3.28;;;1.27;;
21810;SDS011;11067;48.788;9.208;2023-12-20T14:09:30;3.13;;;1.27;;
21810;SDS011;11067;48.788;9.208;2023-12-20T14:11:55;4.90;;;1.30;;
21810;SDS011;11067;48.788;9.208;2023-12-20T14:14:21;3.22;;;1.13;;
21810;SDS011;11067;48.788;9.208;2023-12-20T14:16:46;5.33;;;1.63;;
21810;SDS011;11067;48.788;9.208;2023-12-20T14:19:12;2.80;;;1.10;;
21810;SDS011;11067;48.788;9.208;2023-12-20T14:21:37;5.30;;;1.40;;
21810;SDS011;11067;48.788;9.208;2023-12-20T14:24:03;2.65;;;1.10;;
21810;SDS011;11067;48.788;9.208;2023-12-20T14:26:29;3.30;;;1.38;;
21810;SDS011;11067;48.788;9.208;2023-12-20T14:28:55;3.15;;;1.08;;
21810;SDS011;11067;48.788;9.208;2023-12-20T14:31:20;2.93;;;1.30;;
21810;SDS011;11067;48.788;9.208;2023-12-20T14:33:48;2.15;;;1.25;;
21810;SDS011;11067;48.788;9.208;2023-12-20T14:36:15;3.10;;;1.53;;
21810;SDS011;11067;48.788;9.208;2023-12-20T14:38:42;4.70;;;1.23;;
21810;SDS011;11067;48.788;9.208;2023-12-20T14:41:08;3.58;;;1.40;;
21810;SDS011;11067;48.788;9.208;2023-12-20T14:43:34;4.15;;;1.25;;
21810;SDS011;11067;48.788;9.208;2023-12-20T14:45:59;2.55;;;1.20;;
21810;SDS011;11067;48.788;9.208;2023-12-20T14:48:25;2.78;;;1.58;;
21810;SDS011;11067;48.788;9.208;2023-12-20T14:50:52;1.38;;;1.10;;